Terminal Aerodrome Forecast
Issued by NWS

Home | Current Version | Previous Version | Text Only | Print | Product List | Glossary On
Versions: 1 2 3 4 5 6 7 8 9 10 11 12 13 14 15 16 17 18 19 20 21 22 23 24 25 26 27
000
FTUS44 KHGX 280556
TAFSGR
TAF
KSGR 280556Z 2806/2906 VRB03KT P6SM SCT250
     FM281500 13007KT P6SM VCSH SCT040 BKN120
     FM281900 11008KT P6SM VCTS BKN040CB
     FM290300 14005KT P6SM BKN250=

USA.gov is the U.S. government's official web portal to all federal, state and local government web resources and services.